Time;durP1;ratioP1;P1;durP2;ratioP2;P2;SDS_P1;SDS_P2;PMS_P1;PMS_P2;Temp;Humidity;BMP_temperature;BMP_pressure;BME280_temperature;BME280_humidity;BME280_pressure;Samples;Min_cycle;Max_cycle;Signal;HPM_P1;HPM_P2
2023/09/27 00:01:25;;;;;;;25.43;23.03;;;17.50;1.00;;;;;;5106475;27;20447;-80
2023/09/27 00:03:53;;;;;;;22.47;20.10;;;17.40;1.00;;;;;;5108843;27;20480;-82
2023/09/27 00:06:20;;;;;;;23.37;20.97;;;17.30;1.00;;;;;;5107365;27;20946;-80
2023/09/27 00:08:47;;;;;;;23.47;20.97;;;17.30;1.00;;;;;;5107013;27;20986;-80
2023/09/27 00:11:14;;;;;;;22.40;20.20;;;17.20;1.00;;;;;;5105600;27;20893;-80
2023/09/27 00:13:41;;;;;;;23.40;21.10;;;17.10;1.00;;;;;;5109219;27;20410;-79
2023/09/27 00:16:08;;;;;;;21.90;19.90;;;17.20;1.00;;;;;;5106643;28;20534;-79
2023/09/27 00:18:36;;;;;;;23.23;20.93;;;17.20;1.00;;;;;;5108398;28;20552;-80
2023/09/27 00:21:03;;;;;;;22.97;20.67;;;17.20;1.00;;;;;;5105128;27;20496;-79
2023/09/27 00:23:30;;;;;;;22.37;20.07;;;17.20;1.00;;;;;;5104689;27;20520;-80
2023/09/27 00:25:57;;;;;;;33.43;30.10;;;17.20;1.00;;;;;;5109794;27;20966;-80
2023/09/27 00:28:24;;;;;;;24.90;22.30;;;17.20;1.00;;;;;;5109056;28;20556;-79
2023/09/27 00:30:51;;;;;;;23.50;21.00;;;17.30;1.00;;;;;;5108560;27;20458;-79
2023/09/27 00:33:18;;;;;;;23.70;21.23;;;17.30;1.00;;;;;;5106789;27;20549;-79
2023/09/27 00:35:50;;;;;;;24.13;21.13;;;17.30;1.00;;;;;;5110871;28;20458;-79
2023/09/27 00:38:17;;;;;;;23.23;20.83;;;17.30;1.00;;;;;;5109118;27;20469;-78
2023/09/27 00:40:47;;;;;;;23.23;20.93;;;17.20;1.00;;;;;;5108646;27;20542;-79
2023/09/27 00:43:29;;;;;;;24.80;22.50;;;17.20;1.00;;;;;;5109714;27;20811;-79
2023/09/27 00:46:00;;;;;;;24.00;21.67;;;17.20;1.00;;;;;;5106645;28;20865;-78
2023/09/27 00:48:27;;;;;;;24.10;21.73;;;17.10;1.00;;;;;;5105583;27;20454;-79
2023/09/27 00:50:56;;;;;;;24.83;22.33;;;17.10;1.00;;;;;;5109614;28;20483;-80
2023/09/27 00:53:27;;;;;;;23.10;20.73;;;17.10;1.00;;;;;;5108788;27;20583;-81
2023/09/27 00:55:55;;;;;;;24.20;21.90;;;17.10;1.00;;;;;;5111095;27;20433;-79
2023/09/27 00:58:23;;;;;;;23.70;21.33;;;17.10;1.00;;;;;;5108947;27;20975;-79
2023/09/27 01:00:51;;;;;;;23.37;21.07;;;17.00;1.00;;;;;;5103562;28;20545;-81
2023/09/27 01:03:20;;;;;;;23.90;21.50;;;16.90;1.00;;;;;;5104944;27;20477;-82
2023/09/27 01:05:48;;;;;;;23.83;21.43;;;16.80;1.00;;;;;;5088470;28;20977;-80
2023/09/27 01:08:17;;;;;;;22.90;20.80;;;16.80;1.00;;;;;;5109645;27;20461;-81
2023/09/27 01:10:45;;;;;;;23.67;21.07;;;16.70;1.00;;;;;;5106726;27;20462;-79
2023/09/27 01:13:12;;;;;;;24.50;22.10;;;16.70;1.00;;;;;;5113142;27;20531;-82
2023/09/27 01:15:39;;;;;;;25.30;22.27;;;16.60;1.00;;;;;;5110542;27;20449;-80
2023/09/27 01:18:07;;;;;;;24.37;21.97;;;16.60;1.00;;;;;;5104972;27;20457;-83
2023/09/27 01:20:34;;;;;;;23.47;21.17;;;16.50;1.00;;;;;;5105826;27;20469;-82
2023/09/27 01:23:05;;;;;;;24.20;21.70;;;16.50;1.00;;;;;;5107093;27;20462;-81
2023/09/27 01:25:34;;;;;;;24.90;22.30;;;16.50;1.00;;;;;;5108624;28;20485;-81
2023/09/27 01:28:03;;;;;;;23.27;20.87;;;16.60;1.00;;;;;;5108218;27;21226;-83
2023/09/27 01:30:32;;;;;;;25.33;22.77;;;16.60;1.00;;;;;;5110996;28;20477;-82
2023/09/27 01:33:02;;;;;;;25.63;22.13;;;16.60;1.00;;;;;;5109004;28;20458;-83
2023/09/27 01:35:29;;;;;;;22.60;20.40;;;16.60;1.00;;;;;;5106568;27;20490;-80
2023/09/27 01:37:57;;;;;;;23.07;20.87;;;16.50;1.00;;;;;;5108909;27;20539;-83
2023/09/27 01:40:30;;;;;;;23.60;21.50;;;16.50;1.00;;;;;;5111334;27;21279;-83
2023/09/27 01:42:58;;;;;;;24.07;21.77;;;16.60;1.00;;;;;;5091738;28;21278;-83
2023/09/27 01:45:27;;;;;;;25.43;22.80;;;16.60;1.00;;;;;;5109870;28;20430;-84
2023/09/27 01:47:54;;;;;;;23.43;21.00;;;16.60;1.00;;;;;;5108078;27;20430;-86
2023/09/27 01:50:27;;;;;;;25.07;22.63;;;16.60;1.00;;;;;;5096837;27;20467;-81
2023/09/27 01:52:56;;;;;;;25.57;23.13;;;16.50;1.00;;;;;;5112107;28;20545;-85
2023/09/27 01:55:25;;;;;;;24.30;21.90;;;16.40;1.00;;;;;;5112306;28;20427;-84
2023/09/27 01:57:55;;;;;;;24.30;21.90;;;16.30;1.00;;;;;;5109178;28;20461;-85
2023/09/27 02:00:22;;;;;;;23.20;20.80;;;16.20;1.00;;;;;;5109579;28;20429;-84
2023/09/27 02:02:52;;;;;;;28.23;22.30;;;16.10;1.00;;;;;;5093985;28;20426;-83
2023/09/27 02:05:19;;;;;;;23.23;20.83;;;16.10;1.00;;;;;;5100661;28;21259;-83
2023/09/27 02:07:46;;;;;;;25.60;22.20;;;16.10;1.00;;;;;;5109865;28;20481;-83
2023/09/27 02:10:13;;;;;;;24.03;21.53;;;16.10;1.00;;;;;;5107955;27;20511;-85
2023/09/27 02:12:42;;;;;;;24.93;22.63;;;16.20;1.00;;;;;;5111145;28;20540;-84
2023/09/27 02:15:11;;;;;;;23.70;21.30;;;16.10;1.00;;;;;;5109994;27;20538;-84
2023/09/27 02:17:39;;;;;;;23.70;21.37;;;16.20;1.00;;;;;;5112794;27;20866;-82
2023/09/27 02:20:10;;;;;;;24.87;22.33;;;16.20;1.00;;;;;;5108115;27;20446;-82
2023/09/27 02:22:37;;;;;;;24.67;22.37;;;16.20;1.00;;;;;;5107196;27;20469;-82
2023/09/27 02:25:08;;;;;;;25.63;23.13;;;16.20;1.00;;;;;;5106693;28;20447;-81
2023/09/27 02:27:35;;;;;;;25.00;22.40;;;16.20;1.00;;;;;;5088992;28;20556;-81
2023/09/27 02:30:06;;;;;;;26.07;23.40;;;16.10;1.00;;;;;;5107494;27;20465;-81
2023/09/27 02:32:33;;;;;;;24.23;21.83;;;16.00;1.00;;;;;;5111457;28;20499;-81
2023/09/27 02:35:00;;;;;;;25.60;22.90;;;16.00;1.00;;;;;;5111079;28;20458;-82
2023/09/27 02:37:28;;;;;;;25.77;23.40;;;15.90;1.00;;;;;;5090605;28;20495;-82
2023/09/27 02:39:57;;;;;;;24.63;22.23;;;15.90;1.00;;;;;;5106559;27;20453;-82
2023/09/27 02:42:24;;;;;;;25.83;23.23;;;15.90;1.00;;;;;;5112120;27;20497;-82
2023/09/27 02:44:53;;;;;;;24.50;22.07;;;16.00;1.00;;;;;;5107642;27;20473;-82
2023/09/27 02:47:22;;;;;;;24.17;21.67;;;16.00;1.00;;;;;;5111771;27;20418;-83
2023/09/27 02:49:49;;;;;;;25.97;23.23;;;15.90;1.00;;;;;;5107768;27;20453;-81
2023/09/27 02:52:15;;;;;;;25.13;22.77;;;15.90;1.00;;;;;;5108908;28;20445;-82
2023/09/27 02:54:45;;;;;;;28.53;23.07;;;15.90;1.00;;;;;;5107980;27;20560;-83
2023/09/27 02:57:13;;;;;;;26.80;24.20;;;15.90;1.00;;;;;;5111558;28;20993;-83
2023/09/27 02:59:42;;;;;;;24.70;22.13;;;15.80;1.00;;;;;;5108960;27;20521;-83
2023/09/27 03:02:13;;;;;;;27.40;24.70;;;15.70;1.00;;;;;;5109806;28;20454;-82
2023/09/27 03:04:42;;;;;;;26.00;23.40;;;15.70;1.00;;;;;;5110758;27;20473;-83
2023/09/27 03:07:11;;;;;;;25.30;22.80;;;15.80;1.00;;;;;;5108651;27;20919;-81
2023/09/27 03:09:38;;;;;;;23.83;21.63;;;15.80;1.00;;;;;;5107611;27;20476;-81
2023/09/27 03:12:07;;;;;;;26.30;23.30;;;15.80;1.00;;;;;;5105158;27;20512;-82
2023/09/27 03:14:34;;;;;;;25.70;23.10;;;15.80;1.00;;;;;;5108840;28;20462;-81
2023/09/27 03:17:02;;;;;;;27.33;24.43;;;15.70;1.00;;;;;;5111219;27;20485;-78
2023/09/27 03:19:29;;;;;;;25.17;22.53;;;15.60;1.00;;;;;;5113729;27;21049;-80
2023/09/27 03:21:57;;;;;;;26.87;24.00;;;15.50;1.00;;;;;;5113171;28;20465;-81
2023/09/27 03:24:26;;;;;;;25.60;23.00;;;15.40;1.00;;;;;;5113560;27;20451;-80
2023/09/27 03:26:54;;;;;;;24.47;21.87;;;15.30;1.00;;;;;;5110937;27;20883;-79
2023/09/27 03:29:20;;;;;;;24.30;21.90;;;15.20;1.00;;;;;;5114108;28;20452;-81
2023/09/27 03:31:47;;;;;;;27.13;24.33;;;15.20;1.00;;;;;;5109566;27;21053;-80
2023/09/27 03:34:15;;;;;;;27.93;25.13;;;15.10;1.00;;;;;;5111138;27;20453;-80
2023/09/27 03:36:44;;;;;;;26.13;23.13;;;15.00;1.00;;;;;;5092833;28;20567;-80
2023/09/27 03:39:12;;;;;;;25.80;23.13;;;15.00;1.00;;;;;;5112457;27;20976;-81
2023/09/27 03:41:41;;;;;;;24.33;22.17;;;14.90;1.00;;;;;;5116283;27;20456;-80
2023/09/27 03:44:08;;;;;;;25.70;23.20;;;15.00;1.00;;;;;;5112077;27;21259;-80
2023/09/27 03:46:35;;;;;;;24.87;22.23;;;15.00;1.00;;;;;;5113686;27;20483;-81
2023/09/27 03:49:03;;;;;;;27.30;23.80;;;15.10;1.00;;;;;;5112563;28;20765;-80
2023/09/27 03:51:30;;;;;;;25.43;22.80;;;15.00;1.00;;;;;;5114457;27;20437;-82
2023/09/27 03:53:57;;;;;;;24.53;22.03;;;15.00;1.00;;;;;;5086450;28;21243;-80
2023/09/27 03:56:27;;;;;;;26.00;23.37;;;15.00;1.00;;;;;;5105047;27;20523;-82
2023/09/27 03:58:54;;;;;;;24.47;22.03;;;15.00;1.00;;;;;;5113544;28;20483;-81
2023/09/27 04:01:21;;;;;;;23.37;20.83;;;15.00;1.00;;;;;;5111271;27;20484;-80
2023/09/27 04:03:48;;;;;;;23.60;21.40;;;15.00;1.00;;;;;;5108042;28;21189;-79
2023/09/27 04:06:15;;;;;;;25.83;23.00;;;15.10;1.00;;;;;;5110991;27;20581;-81
2023/09/27 04:08:41;;;;;;;25.10;22.63;;;15.20;1.00;;;;;;5109761;28;20460;-80
2023/09/27 04:11:10;;;;;;;23.53;21.30;;;15.20;1.00;;;;;;5110141;27;20536;-79
2023/09/27 04:13:40;;;;;;;23.97;21.57;;;15.20;1.00;;;;;;5111923;27;20539;-79
2023/09/27 04:16:10;;;;;;;24.17;21.57;;;15.10;1.00;;;;;;5116144;28;20409;-79
2023/09/27 04:18:37;;;;;;;24.53;21.93;;;15.10;1.00;;;;;;5114385;27;20492;-80
2023/09/27 04:21:12;;;;;;;23.07;20.87;;;15.10;1.00;;;;;;5108859;27;20453;-79
2023/09/27 04:23:42;;;;;;;24.97;22.40;;;15.20;1.00;;;;;;5110122;27;20488;-80
2023/09/27 04:26:09;;;;;;;24.00;21.43;;;15.20;1.00;;;;;;5106699;27;20481;-79
2023/09/27 04:28:37;;;;;;;23.37;21.10;;;15.20;1.00;;;;;;5111498;27;21068;-79
2023/09/27 04:31:05;;;;;;;23.77;21.47;;;15.20;1.00;;;;;;5109492;28;20469;-81
2023/09/27 04:33:32;;;;;;;25.50;23.00;;;15.30;1.00;;;;;;5112323;28;20461;-79
2023/09/27 04:36:01;;;;;;;27.27;22.67;;;15.30;1.00;;;;;;5108551;28;20501;-80
2023/09/27 04:38:28;;;;;;;24.97;22.40;;;15.20;1.00;;;;;;5110032;28;21013;-81
2023/09/27 04:40:55;;;;;;;24.77;22.13;;;15.20;1.00;;;;;;5110387;27;20517;-80
2023/09/27 04:43:24;;;;;;;25.23;22.63;;;15.20;1.00;;;;;;5112133;27;20425;-82
2023/09/27 04:45:51;;;;;;;27.17;23.70;;;15.20;1.00;;;;;;5111283;27;20568;-82
2023/09/27 04:48:20;;;;;;;27.97;24.37;;;15.20;1.00;;;;;;5112994;27;20546;-81
2023/09/27 04:50:47;;;;;;;25.80;23.07;;;15.30;1.00;;;;;;5108584;28;20461;-80
2023/09/27 04:53:16;;;;;;;26.80;23.83;;;15.20;1.00;;;;;;5110116;27;20489;-81
2023/09/27 04:55:43;;;;;;;24.83;22.20;;;15.20;1.00;;;;;;5109956;27;20485;-80
2023/09/27 04:58:10;;;;;;;25.20;22.77;;;15.20;1.00;;;;;;5109277;28;20468;-80
2023/09/27 05:00:37;;;;;;;27.00;24.13;;;15.20;1.00;;;;;;5108259;27;20531;-80
2023/09/27 05:03:05;;;;;;;41.17;37.20;;;15.20;1.00;;;;;;5107717;27;20529;-80
2023/09/27 05:05:35;;;;;;;24.33;21.90;;;15.20;1.00;;;;;;5096603;28;20517;-80
2023/09/27 05:08:02;;;;;;;26.23;23.57;;;15.20;1.00;;;;;;5104953;27;20470;-81
2023/09/27 05:10:31;;;;;;;25.40;22.50;;;15.10;1.00;;;;;;5109163;28;20822;-80
2023/09/27 05:12:58;;;;;;;26.00;22.97;;;15.00;1.00;;;;;;5087293;28;20475;-80
2023/09/27 05:15:26;;;;;;;23.50;21.10;;;15.10;1.00;;;;;;5107981;28;20472;-81
2023/09/27 05:17:53;;;;;;;27.90;25.10;;;15.00;1.00;;;;;;5108537;27;22456;-81
2023/09/27 05:20:20;;;;;;;25.60;23.20;;;15.10;1.00;;;;;;5111214;27;20521;-80
2023/09/27 05:22:49;;;;;;;24.73;22.37;;;15.20;1.00;;;;;;5113852;27;20451;-81
2023/09/27 05:25:16;;;;;;;26.73;23.93;;;15.10;1.00;;;;;;5109275;27;20545;-81
2023/09/27 05:27:43;;;;;;;25.07;22.40;;;15.20;1.00;;;;;;5111409;27;20941;-80
2023/09/27 05:30:11;;;;;;;23.63;21.13;;;15.20;1.00;;;;;;5110031;28;20549;-81
2023/09/27 05:32:41;;;;;;;23.47;21.07;;;15.20;1.00;;;;;;5095498;28;20457;-81
2023/09/27 05:35:11;;;;;;;25.47;23.03;;;15.30;1.00;;;;;;5106945;27;20437;-81
2023/09/27 05:37:38;;;;;;;25.17;22.30;;;15.40;1.00;;;;;;5106849;27;20430;-81
2023/09/27 05:40:10;;;;;;;24.30;21.80;;;15.50;1.00;;;;;;5106845;27;20447;-84
2023/09/27 05:42:37;;;;;;;25.50;22.43;;;15.50;1.00;;;;;;5108511;27;20437;-80
2023/09/27 05:45:05;;;;;;;22.93;20.67;;;15.50;1.00;;;;;;5107628;27;20464;-80
2023/09/27 05:47:32;;;;;;;25.33;22.70;;;15.50;1.00;;;;;;5106077;27;20798;-81
2023/09/27 05:49:59;;;;;;;26.93;24.00;;;15.50;1.00;;;;;;5108281;27;21337;-84
2023/09/27 05:52:27;;;;;;;25.40;22.03;;;15.50;1.00;;;;;;5111569;27;20549;-81
2023/09/27 05:54:54;;;;;;;27.63;24.27;;;15.50;1.00;;;;;;5106384;27;20485;-79
2023/09/27 05:57:24;;;;;;;26.20;23.07;;;15.40;1.00;;;;;;5103892;27;20515;-78
2023/09/27 05:59:58;;;;;;;25.53;22.87;;;15.40;1.00;;;;;;5107503;27;20470;-80
2023/09/27 06:02:30;;;;;;;25.93;23.43;;;15.40;1.00;;;;;;5105169;27;20464;-78
2023/09/27 06:05:00;;;;;;;26.83;24.03;;;15.50;1.00;;;;;;5106067;28;21513;-78
2023/09/27 06:07:27;;;;;;;25.43;22.80;;;15.60;1.00;;;;;;5109348;28;20542;-77
2023/09/27 06:09:54;;;;;;;27.13;24.30;;;15.60;1.00;;;;;;5106767;27;20888;-79
2023/09/27 06:12:23;;;;;;;26.00;23.37;;;15.70;1.00;;;;;;5108434;28;20593;-80
2023/09/27 06:14:50;;;;;;;25.83;23.00;;;15.70;1.00;;;;;;5107618;27;20478;-80
2023/09/27 06:17:19;;;;;;;26.00;23.40;;;15.80;1.00;;;;;;5108072;27;20457;-79
2023/09/27 06:19:48;;;;;;;27.13;24.23;;;15.90;1.00;;;;;;5108928;28;20512;-80
2023/09/27 06:22:17;;;;;;;24.47;22.10;;;16.00;1.00;;;;;;5114339;27;20504;-79
2023/09/27 06:24:46;;;;;;;26.70;23.87;;;15.90;1.00;;;;;;5111552;27;20470;-78
2023/09/27 06:27:13;;;;;;;24.37;22.10;;;16.00;1.00;;;;;;5107899;28;20458;-79
2023/09/27 06:29:41;;;;;;;25.43;22.77;;;16.00;1.00;;;;;;5107378;27;20900;-79
2023/09/27 06:32:08;;;;;;;26.30;23.80;;;16.10;1.00;;;;;;5105247;27;20462;-78
2023/09/27 06:34:36;;;;;;;28.20;23.70;;;16.20;1.00;;;;;;5107441;27;20546;-79
2023/09/27 06:37:07;;;;;;;25.90;23.50;;;16.30;1.00;;;;;;5107291;27;20537;-79
2023/09/27 06:39:34;;;;;;;26.87;23.03;;;16.40;1.00;;;;;;5106256;27;20536;-78
2023/09/27 06:42:02;;;;;;;25.40;22.93;;;16.50;1.00;;;;;;5103706;28;20470;-80
2023/09/27 06:44:30;;;;;;;25.50;22.80;;;16.60;1.00;;;;;;5106583;27;20470;-77
2023/09/27 06:46:58;;;;;;;27.23;24.60;;;16.70;1.00;;;;;;5109117;28;20486;-79
2023/09/27 06:49:26;;;;;;;27.10;23.90;;;16.70;1.00;;;;;;5105900;27;20630;-79
2023/09/27 06:51:53;;;;;;;25.80;23.17;;;16.80;1.00;;;;;;5108271;27;20456;-78
2023/09/27 06:54:21;;;;;;;27.50;23.87;;;16.90;1.00;;;;;;5108305;27;20549;-79
2023/09/27 06:56:48;;;;;;;27.97;25.10;;;17.00;1.00;;;;;;5111483;27;20417;-81
2023/09/27 06:59:16;;;;;;;30.80;25.10;;;17.20;1.00;;;;;;5113033;27;20465;-78
2023/09/27 07:01:44;;;;;;;28.47;25.47;;;17.30;1.00;;;;;;5112227;27;20508;-81
2023/09/27 07:04:13;;;;;;;26.80;24.17;;;17.40;1.00;;;;;;5111238;28;20478;-79
2023/09/27 07:06:41;;;;;;;27.03;24.20;;;17.60;1.00;;;;;;5109357;28;21290;-80
2023/09/27 07:09:13;;;;;;;27.13;24.33;;;17.80;1.00;;;;;;5088743;28;20450;-79
2023/09/27 07:11:44;;;;;;;25.60;23.13;;;17.90;1.00;;;;;;5106843;27;20450;-79
2023/09/27 07:14:12;;;;;;;25.13;22.63;;;18.00;1.00;;;;;;5111843;28;20478;-79
2023/09/27 07:16:39;;;;;;;26.87;24.33;;;18.00;1.00;;;;;;5111749;28;21019;-80
2023/09/27 07:19:09;;;;;;;26.37;23.70;;;18.10;1.00;;;;;;5107523;27;20918;-78
2023/09/27 07:21:37;;;;;;;27.73;23.53;;;18.10;1.00;;;;;;5113803;27;21205;-77
2023/09/27 07:24:05;;;;;;;31.57;24.70;;;18.00;1.00;;;;;;5112456;28;20553;-77
2023/09/27 07:26:33;;;;;;;31.47;25.80;;;18.10;1.00;;;;;;5108942;27;21199;-79
2023/09/27 07:29:01;;;;;;;28.40;25.53;;;18.10;1.00;;;;;;5112908;27;20462;-80
2023/09/27 07:31:29;;;;;;;29.00;26.00;;;18.20;1.00;;;;;;5112933;28;20492;-80
2023/09/27 07:33:56;;;;;;;30.43;27.17;;;18.30;1.00;;;;;;5111463;27;20493;-81
2023/09/27 07:36:24;;;;;;;27.93;25.03;;;18.40;1.00;;;;;;5110780;28;20540;-80
2023/09/27 07:38:55;;;;;;;30.73;24.57;;;18.60;1.00;;;;;;5112702;27;20437;-78
2023/09/27 07:41:23;;;;;;;27.47;24.53;;;18.70;1.00;;;;;;5110388;28;20462;-79
2023/09/27 07:43:50;;;;;;;29.70;25.70;;;18.80;1.00;;;;;;5112027;27;20970;-80
2023/09/27 07:46:17;;;;;;;26.87;23.80;;;18.90;1.00;;;;;;5111663;27;20462;-80
2023/09/27 07:48:45;;;;;;;30.80;27.33;;;19.00;1.00;;;;;;5111092;27;20577;-78
2023/09/27 07:51:12;;;;;;;27.20;24.40;;;19.10;1.00;;;;;;5113202;28;20490;-78
2023/09/27 07:53:39;;;;;;;30.50;23.93;;;19.10;1.00;;;;;;5113563;27;21276;-78
2023/09/27 07:56:19;;;;;;;26.33;23.73;;;19.20;1.00;;;;;;5112856;28;20906;-79
2023/09/27 07:58:48;;;;;;;27.13;24.40;;;19.40;1.00;;;;;;5115147;27;20483;-77
2023/09/27 08:01:20;;;;;;;24.87;22.20;;;19.60;1.00;;;;;;5113233;27;20471;-79
2023/09/27 08:03:47;;;;;;;26.40;23.60;;;19.80;1.00;;;;;;5091019;28;20470;-79
2023/09/27 08:06:17;;;;;;;27.83;24.37;;;20.00;1.00;;;;;;5110654;27;20457;-79
2023/09/27 08:08:45;;;;;;;26.90;24.30;;;20.20;1.00;;;;;;5109302;27;20498;-79
2023/09/27 08:11:14;;;;;;;25.40;22.80;;;20.30;1.00;;;;;;5110307;27;20972;-79
2023/09/27 08:13:41;;;;;;;26.80;24.00;;;20.40;1.00;;;;;;5086491;27;20549;-80
2023/09/27 08:16:10;;;;;;;25.57;23.17;;;20.50;1.00;;;;;;5111195;27;21008;-82
2023/09/27 08:18:40;;;;;;;27.73;24.87;;;20.60;1.00;;;;;;5115337;27;20767;-81
2023/09/27 08:21:07;;;;;;;25.70;23.17;;;20.70;1.00;;;;;;5094592;28;20462;-80
2023/09/27 08:23:34;;;;;;;25.60;23.20;;;20.90;1.00;;;;;;5113818;27;20434;-80
2023/09/27 08:26:02;;;;;;;24.00;21.73;;;21.10;1.00;;;;;;5110707;28;20451;-81
2023/09/27 08:28:33;;;;;;;24.23;22.00;;;21.20;1.00;;;;;;5113910;28;20441;-81
2023/09/27 08:31:04;;;;;;;25.63;23.27;;;21.40;1.00;;;;;;5109174;27;20486;-81
2023/09/27 08:33:31;;;;;;;24.27;22.03;;;21.50;1.00;;;;;;5100350;28;20475;-81
2023/09/27 08:35:58;;;;;;;27.03;23.80;;;21.60;1.00;;;;;;5093107;28;20452;-83
2023/09/27 08:38:25;;;;;;;26.40;23.60;;;21.80;1.00;;;;;;5112496;27;20540;-80
2023/09/27 08:40:54;;;;;;;28.40;25.30;;;21.90;1.00;;;;;;5112100;27;20477;-81
2023/09/27 08:43:22;;;;;;;23.40;21.00;;;22.10;1.00;;;;;;5114238;27;20553;-80
2023/09/27 08:45:52;;;;;;;32.23;28.77;;;22.20;1.00;;;;;;5114884;27;20465;-82
2023/09/27 08:48:22;;;;;;;25.10;22.70;;;22.30;1.00;;;;;;5109736;27;20519;-80
2023/09/27 08:50:50;;;;;;;23.17;21.07;;;22.50;1.00;;;;;;5111049;28;20517;-80
2023/09/27 08:53:19;;;;;;;22.50;20.37;;;22.60;1.00;;;;;;5113544;28;20523;-81
2023/09/27 08:55:49;;;;;;;23.30;21.40;;;22.80;1.00;;;;;;5113794;27;20451;-81
2023/09/27 08:58:18;;;;;;;20.50;18.63;;;22.90;1.00;;;;;;5112810;28;20530;-80
2023/09/27 09:00:46;;;;;;;21.67;19.30;;;23.20;1.00;;;;;;5091149;28;20543;-80
2023/09/27 09:03:15;;;;;;;20.30;18.30;;;23.80;1.00;;;;;;5108466;28;20482;-80
2023/09/27 09:05:44;;;;;;;20.23;17.40;;;25.00;1.00;;;;;;5115118;27;20460;-81
2023/09/27 09:08:12;;;;;;;17.17;15.53;;;26.50;1.00;;;;;;5114842;28;20473;-80
2023/09/27 09:10:41;;;;;;;18.93;16.70;;;28.00;1.00;;;;;;5098344;28;20917;-83
2023/09/27 09:13:08;;;;;;;17.40;15.90;;;29.60;1.00;;;;;;5112989;28;20468;-83
2023/09/27 09:15:40;;;;;;;16.67;15.00;;;30.80;1.00;;;;;;5113195;27;20456;-81
2023/09/27 09:18:11;;;;;;;16.90;15.40;;;31.40;1.00;;;;;;5110386;28;20478;-82
2023/09/27 09:20:54;;;;;;;18.97;17.17;;;32.10;1.00;;;;;;5110455;28;20494;-82
2023/09/27 09:23:33;;;;;;;15.10;13.90;;;33.00;1.00;;;;;;5113161;27;20522;-82
2023/09/27 09:26:04;;;;;;;18.00;16.40;;;33.40;1.00;;;;;;5110023;27;20476;-82
2023/09/27 09:28:35;;;;;;;16.50;15.10;;;33.90;1.00;;;;;;5111816;28;20463;-80
2023/09/27 09:31:04;;;;;;;14.83;13.60;;;34.70;1.00;;;;;;5118033;28;20544;-82
2023/09/27 09:33:37;;;;;;;17.30;15.60;;;34.90;1.00;;;;;;5113619;27;20450;-81
2023/09/27 09:36:06;;;;;;;14.80;13.50;;;35.20;1.00;;;;;;5112238;27;20418;-82
2023/09/27 09:38:34;;;;;;;14.57;13.47;;;35.70;1.00;;;;;;5087241;28;20438;-83
2023/09/27 09:41:02;;;;;;;14.70;13.00;;;35.20;1.00;;;;;;5093769;28;20465;-82
2023/09/27 09:43:31;;;;;;;16.10;14.50;;;34.80;1.00;;;;;;5110511;28;20563;-81
2023/09/27 09:46:00;;;;;;;13.17;12.07;;;34.60;1.00;;;;;;5111749;28;20457;-84
2023/09/27 09:48:30;;;;;;;13.17;12.13;;;35.00;1.00;;;;;;5111242;27;20469;-83
2023/09/27 09:51:07;;;;;;;13.47;12.20;;;35.80;1.00;;;;;;5110515;28;20567;-82
2023/09/27 09:53:38;;;;;;;13.93;12.83;;;35.10;1.00;;;;;;5112215;28;20567;-84
2023/09/27 09:56:07;;;;;;;16.27;12.63;;;34.30;1.00;;;;;;5110107;28;20458;-81
2023/09/27 09:58:36;;;;;;;12.00;10.87;;;33.80;1.00;;;;;;5110957;27;20461;-83
2023/09/27 10:01:04;;;;;;;12.80;11.53;;;33.30;1.00;;;;;;5109803;27;20628;-80
2023/09/27 10:03:35;;;;;;;16.57;13.87;;;32.60;1.00;;;;;;5109962;28;20568;-85
2023/09/27 10:06:04;;;;;;;13.87;12.50;;;32.70;1.00;;;;;;5090824;28;20453;-82
2023/09/27 10:08:34;;;;;;;17.47;11.40;;;33.70;1.00;;;;;;5091945;28;21000;-82
2023/09/27 10:11:05;;;;;;;10.07;9.37;;;33.90;1.00;;;;;;5109449;28;20428;-82
2023/09/27 10:13:35;;;;;;;11.93;10.80;;;33.60;1.00;;;;;;5113530;28;20493;-83
2023/09/27 10:16:04;;;;;;;12.93;11.63;;;33.70;1.00;;;;;;5109391;27;20835;-81
2023/09/27 10:18:38;;;;;;;9.60;8.87;;;34.40;1.00;;;;;;5115203;27;21046;-83
2023/09/27 10:21:09;;;;;;;10.50;9.20;;;35.40;1.00;;;;;;5113564;27;20515;-84
2023/09/27 10:24:00;;;;;;;10.93;9.43;;;36.20;1.00;;;;;;5111499;28;20445;-83
2023/09/27 10:26:37;;;;;;;9.63;8.63;;;36.60;1.00;;;;;;5112311;28;20952;-83
2023/09/27 10:29:12;;;;;;;8.43;7.73;;;37.60;1.00;;;;;;5112482;27;20495;-84
2023/09/27 10:32:20;;;;;;;9.23;8.50;;;38.40;1.00;;;;;;5113062;27;20563;-84
2023/09/27 10:34:51;;;;;;;10.10;9.10;;;39.00;1.00;;;;;;5112332;28;20473;-82
2023/09/27 10:37:52;;;;;;;9.50;8.70;;;39.50;1.00;;;;;;5112770;27;20450;-84
2023/09/27 10:40:22;;;;;;;8.93;8.20;;;40.50;1.00;;;;;;5113326;28;20461;-86
2023/09/27 10:42:52;;;;;;;8.93;8.13;;;40.80;1.00;;;;;;5092710;28;20561;-81
2023/09/27 10:45:21;;;;;;;8.13;7.53;;;41.20;1.00;;;;;;5112312;28;20453;-84
2023/09/27 10:47:49;;;;;;;7.70;7.10;;;40.70;1.00;;;;;;5107894;27;20431;-81
2023/09/27 10:50:28;;;;;;;8.40;7.60;;;40.10;1.00;;;;;;5108421;28;20530;-82
2023/09/27 10:52:56;;;;;;;8.57;7.60;;;40.50;1.00;;;;;;5089093;28;20429;-83
2023/09/27 10:55:24;;;;;;;7.97;7.30;;;40.90;1.00;;;;;;5108721;28;20465;-83
2023/09/27 10:57:52;;;;;;;7.97;7.27;;;41.40;1.00;;;;;;5108932;27;21100;-83
2023/09/27 11:00:21;;;;;;;8.60;7.80;;;41.10;1.00;;;;;;5111263;28;20980;-82
2023/09/27 11:02:51;;;;;;;7.40;6.80;;;41.60;1.00;;;;;;5111684;27;20468;-84
2023/09/27 11:05:25;;;;;;;8.60;7.10;;;42.10;1.00;;;;;;5111345;28;20895;-83
2023/09/27 11:07:52;;;;;;;8.00;7.30;;;42.90;1.00;;;;;;5111614;28;20457;-80
2023/09/27 11:10:31;;;;;;;7.27;6.57;;;43.50;1.00;;;;;;5098738;27;20491;-83
2023/09/27 11:13:12;;;;;;;8.20;7.40;;;43.90;1.00;;;;;;5109218;27;20474;-83
2023/09/27 11:15:41;;;;;;;7.90;5.93;;;43.70;1.00;;;;;;5108886;27;20481;-83
2023/09/27 11:18:08;;;;;;;6.37;5.80;;;43.30;1.00;;;;;;5110926;27;20534;-83
2023/09/27 11:20:36;;;;;;;6.33;5.77;;;43.20;1.00;;;;;;5110959;28;20507;-83
2023/09/27 11:23:04;;;;;;;7.97;7.37;;;42.60;1.00;;;;;;5111878;28;20503;-89
2023/09/27 11:25:34;;;;;;;8.60;5.80;;;42.20;1.00;;;;;;5109225;28;20465;-83
2023/09/27 11:28:02;;;;;;;6.03;5.20;;;42.40;1.00;;;;;;5108349;28;20469;-84
2023/09/27 11:30:33;;;;;;;6.47;5.87;;;42.50;1.00;;;;;;5118996;27;20445;-84
2023/09/27 11:35:49;;;;;;;5.77;5.23;;;41.40;1.00;;;;;;5112914;27;20528;-85
2023/09/27 11:38:18;;;;;;;6.30;5.40;;;42.30;1.00;;;;;;5112906;27;21061;-84
2023/09/27 11:40:48;;;;;;;5.07;4.60;;;43.20;1.00;;;;;;5111688;28;20453;-83
2023/09/27 11:43:17;;;;;;;4.90;4.50;;;43.80;1.00;;;;;;5113040;28;20458;-85
2023/09/27 11:45:46;;;;;;;5.37;4.87;;;44.30;1.00;;;;;;5113609;28;20500;-81
2023/09/27 11:48:13;;;;;;;6.17;5.23;;;43.90;1.00;;;;;;5108327;28;20444;-84
2023/09/27 11:50:40;;;;;;;6.93;5.17;;;43.80;1.00;;;;;;5108068;27;20461;-82
2023/09/27 11:53:07;;;;;;;5.13;4.80;;;44.10;1.00;;;;;;5109595;27;20482;-83
2023/09/27 11:55:36;;;;;;;5.00;4.70;;;44.50;1.00;;;;;;5107926;28;20514;-82
2023/09/27 11:58:05;;;;;;;5.70;5.17;;;43.80;1.00;;;;;;5108493;27;20442;-79
2023/09/27 12:00:32;;;;;;;5.60;5.30;;;44.00;1.00;;;;;;5106439;27;20491;-80
2023/09/27 12:03:04;;;;;;;5.40;4.90;;;43.80;1.00;;;;;;5109292;28;20425;-80
2023/09/27 12:05:31;;;;;;;5.90;5.50;;;44.30;1.00;;;;;;5107864;28;20481;-80
2023/09/27 12:07:58;;;;;;;7.97;6.40;;;43.90;1.00;;;;;;5106703;27;20466;-81
2023/09/27 12:10:26;;;;;;;7.10;6.40;;;42.90;1.00;;;;;;5110471;27;20557;-81
2023/09/27 12:12:54;;;;;;;7.23;6.53;;;42.70;1.00;;;;;;5109168;27;20598;-79
2023/09/27 12:15:23;;;;;;;7.03;6.53;;;43.70;1.00;;;;;;5107919;27;20480;-80
2023/09/27 12:17:50;;;;;;;6.77;6.37;;;44.80;1.00;;;;;;5110251;27;21048;-80
2023/09/27 12:20:17;;;;;;;6.37;5.93;;;45.10;1.00;;;;;;5106194;27;20458;-80
2023/09/27 12:22:44;;;;;;;6.40;5.80;;;45.90;1.00;;;;;;5108055;27;20936;-81
2023/09/27 12:25:12;;;;;;;6.77;6.27;;;46.20;1.00;;;;;;5105708;28;20483;-81
2023/09/27 12:27:39;;;;;;;7.00;6.40;;;46.80;1.00;;;;;;5110913;27;20468;-79
2023/09/27 12:30:08;;;;;;;6.97;6.40;;;46.90;1.00;;;;;;5108707;27;20462;-80
2023/09/27 12:32:36;;;;;;;6.13;5.63;;;47.00;1.00;;;;;;5109450;27;20533;-81
2023/09/27 12:35:06;;;;;;;6.60;6.10;;;47.50;1.00;;;;;;5107807;27;20464;-81
2023/09/27 12:37:34;;;;;;;6.90;6.30;;;47.00;1.00;;;;;;5108133;27;20458;-81
2023/09/27 12:40:02;;;;;;;6.93;6.20;;;46.30;1.00;;;;;;5106607;28;20476;-79
2023/09/27 12:42:31;;;;;;;9.93;7.20;;;44.90;1.00;;;;;;5109271;27;20476;-80
2023/09/27 12:44:59;;;;;;;7.63;6.93;;;44.40;1.00;;;;;;5104528;28;20473;-78
2023/09/27 12:47:26;;;;;;;7.00;6.27;;;43.20;1.00;;;;;;5109783;27;20457;-80
2023/09/27 12:49:56;;;;;;;7.67;6.93;;;42.10;1.00;;;;;;5104901;27;20918;-80
2023/09/27 12:52:25;;;;;;;8.43;6.80;;;40.40;1.00;;;;;;5112876;27;20987;-80